Kennebec River @ North Sidney, Me

Kennebec River at North Sidney
 Total Drainage Area: 5,403 sq. miles 
 Drainage Area Controlled by Corps Dams: 0 sq. miles (0%) 
 Warning Flow/Stage: 57,600 cfs / 17.0 feet 
 Flood Flow/Stage: 104,551 cfs / 25.0 feet 
Date Time
(Eastern)
Stage
(ft)
Flow
(cfs)
CSM
(cfs / sq. mi.)
Jun-16 07:15 pm 6.42 4,582 .9
Jun-16 06:15 pm 6.43 4,606 .9
Jun-16 05:15 pm 6.44 4,636 .9
Jun-16 04:15 pm 6.45 4,665 .9
Jun-16 03:15 pm 6.46 4,695 .9
Jun-16 02:15 pm 6.47 4,725 .9
Jun-16 01:15 pm 6.48 4,754 .9
Jun-16 12:15 pm 6.49 4,784 .9
Jun-16 11:15 am 6.50 4,814 .9
Jun-16 10:15 am 6.50 4,814 .9
Jun-16 09:15 am 6.50 4,814 .9
Jun-16 08:15 am 6.49 4,784 .9
Jun-16 07:15 am 6.49 4,784 .9
Jun-16 06:15 am 6.49 4,784 .9
Jun-16 05:15 am 6.49 4,784 .9
Jun-16 04:15 am 6.51 4,845 .9
Jun-16 03:15 am 6.53 4,905 .9
Jun-16 02:15 am 6.54 4,936 .9
Jun-16 01:15 am 6.54 4,936 .9
Jun-16 12:15 am 6.55 4,966 .9
Jun-15 11:15 pm 6.55 4,966 .9
Jun-15 10:15 pm 6.54 4,936 .9
Jun-15 09:15 pm 6.54 4,936 .9
Jun-15 08:15 pm 6.54 4,936 .9
Jun-15 07:15 pm 6.54 4,936 .9
Report Generated June 16, 2024 08:19 pm